Kissee Mills, MO (65680)

4:50 AM CDT on September 02, 2014 (GMT -0500)
DanO's Place | Change Station
CLOSE
Current Station
Personal Weather Station
Location: Forsyth, MO
Elevation: 764 ft
Nearby Weather Stations

Elev 764 ft 36.68 °N, 93.11 °W | Updated 1 second ago

Thunderstorm
Thunderstorm
68.6 °F
Feels Like 68.6 °F
N
0.0
Wind Variable Wind from SSW
Gusts 4.0 mph

Today
High -- | Low -- °F
--% Chance of Precip.
Yesterday
High -- | Low -- °F
Precip. -- in
6:44 AM 7:38 PM
Waxing Crescent, 50% visible
Pressure 30.06 in
Visibility 1.5 miles
Clouds Mostly Cloudy 300 ft
Mostly Cloudy 3500 ft
Overcast 6000 ft
Dew Point 66 °F
Humidity 93%
Rainfall 0.95 in
Snow Depth Not available.
UV 0 out of 12
Pollen 11.40 out of 12
Air Quality Not available.
Flu Activity Not available.
METAR KBBG 020935Z AUTO 26003KT 1 1/2SM VCTS +RA BKN003 BKN035 OVC060 19/19 A3006 RMK AO2 LTG DSNT ALQDS P0029

More Conditions Fewer Conditions

Pressure 30.06 in
Visibility 1.5 miles
Clouds Mostly Cloudy 300 ft
Mostly Cloudy 3500 ft
Overcast 6000 ft
Dew Point 66 °F
Humidity 93%
Rainfall 0.95 in
Snow Depth Not available.
UV 0 out of 12
Pollen 11.40 out of 12
Air Quality Not available.
Flu Activity Not available.
METAR KBBG 020935Z AUTO 26003KT 1 1/2SM VCTS +RA BKN003 BKN035 OVC060 19/19 A3006 RMK AO2 LTG DSNT ALQDS P0029

More Conditions Fewer Conditions

10-Day Weather Forecast

Almanac

Astronomy

Sep. 02, 2014 Rise Set
Actual Time 6:44 AM CDT 7:38 PM CDT
Civil Twilight 6:17 AM CDT 8:05 PM CDT
Nautical Twilight 5:46 AM CDT 8:36 PM CDT
Astronomical Twilight 5:14 AM CDT 9:08 PM CDT
Moon 2:17 PM CDT No Moon Set
Length of Visible Light 13h 47m
Length of Day
12h 54m
Tomorrow will be 2m 15s shorter.
Waxing Crescent, 50% of the Moon is Illuminated
Today
Waxing Crescent
Sep 2
First Quarter
Sep 8
Full
Sep 15
Last Quarter
Sep 24
New

Today's Extremes

State Highs State Lows

Community

WunderPhotos

Upload Photos

1,749,587 photos uploaded!

WunderBlogs® & News

Nearby

Snow Depth

Station Depth Elevation
No new snow has been reported.

Earthquake Activity

City Distance Mag. Time & Date
No recent earthquake activity has been reported nearby.
Minimum magnitude displayed is 2.5.

Coastal Water Temperatures

Place Temperature
No Stations Reporting

Nearby Weather Stations